createdAt,value
2023-03-29T17:35:02.823Z,7.56
2023-03-29T17:36:53.449Z,7.54
2023-03-29T17:38:48.221Z,7.54
2023-03-29T17:40:38.856Z,7.53
2023-03-29T17:42:29.734Z,7.51
2023-03-29T17:44:20.406Z,7.49
2023-03-29T17:46:11.011Z,7.48
2023-03-29T17:48:02.818Z,7.45
2023-03-29T17:49:55.211Z,7.43
2023-03-29T17:51:45.610Z,7.38
2023-03-29T17:53:35.656Z,7.35
2023-03-29T17:55:26.728Z,7.33
2023-03-29T17:57:17.285Z,7.31
2023-03-29T17:59:07.524Z,7.29
2023-03-29T18:00:57.669Z,7.27
2023-03-29T18:02:48.232Z,7.24
2023-03-29T18:04:38.766Z,7.22
2023-03-29T18:06:28.952Z,7.19
2023-03-29T18:08:18.913Z,7.17
2023-03-29T18:10:09.280Z,7.14
2023-03-29T18:11:59.619Z,7.12
2023-03-29T18:13:51.111Z,7.09
2023-03-29T18:15:41.831Z,7.06
2023-03-29T18:17:33.039Z,7.03
2023-03-29T18:19:23.310Z,7.01
2023-03-29T18:21:15.433Z,6.99
2023-03-29T18:23:05.887Z,6.96
2023-03-29T18:24:56.086Z,6.93
2023-03-29T18:26:45.953Z,6.91
2023-03-29T18:28:36.885Z,6.89
2023-03-29T18:30:27.160Z,6.86
2023-03-29T18:32:17.080Z,6.85
2023-03-29T18:34:07.374Z,6.83
2023-03-29T18:35:57.499Z,6.82
2023-03-29T18:37:47.729Z,6.80
2023-03-29T18:39:38.187Z,6.80
2023-03-29T18:41:28.744Z,6.80
2023-03-29T18:43:19.242Z,6.79
2023-03-29T18:45:10.113Z,6.80
2023-03-29T18:47:00.454Z,6.79
2023-03-29T18:48:50.641Z,6.79
2023-03-29T18:50:44.311Z,6.78
2023-03-29T18:52:34.658Z,6.78
2023-03-29T18:54:24.686Z,6.78
2023-03-29T18:56:15.049Z,6.77
2023-03-29T18:58:05.255Z,6.78
2023-03-29T18:59:55.339Z,6.78
2023-03-29T19:01:45.792Z,6.77
2023-03-29T19:03:37.577Z,6.77
2023-03-29T19:05:28.197Z,6.76
2023-03-29T19:07:19.926Z,6.76
2023-03-29T19:09:10.520Z,6.76
2023-03-29T19:11:03.073Z,6.76
2023-03-29T19:12:53.161Z,6.74
2023-03-29T19:14:43.569Z,6.72
2023-03-29T19:16:33.462Z,6.71
2023-03-29T19:18:25.809Z,6.70
2023-03-29T19:20:16.252Z,6.68
2023-03-29T19:22:06.907Z,6.67
2023-03-29T19:23:59.344Z,6.68
2023-03-29T19:25:56.960Z,6.66
2023-03-29T19:27:47.140Z,6.66
2023-03-29T19:29:37.668Z,6.66
2023-03-29T19:31:27.824Z,6.65
2023-03-29T19:33:19.219Z,6.65
2023-03-29T19:35:12.069Z,6.64
2023-03-29T19:37:02.533Z,6.62
2023-03-29T19:38:53.474Z,6.62
2023-03-29T19:40:45.000Z,6.61
2023-03-29T19:42:35.619Z,6.59
2023-03-29T19:44:27.436Z,6.59
2023-03-29T19:46:17.976Z,6.57
2023-03-29T19:50:03.954Z,6.56
2023-03-29T19:51:56.672Z,6.55
2023-03-29T19:53:47.062Z,6.55
2023-03-29T19:55:38.835Z,6.54
2023-03-29T19:57:30.154Z,6.53
2023-03-29T19:59:20.464Z,6.53
2023-03-29T20:01:10.238Z,6.52
2023-03-29T20:03:01.483Z,6.52
2023-03-29T20:04:52.261Z,6.53
2023-03-29T20:06:42.525Z,6.51
2023-03-29T20:08:35.167Z,6.52
2023-03-29T20:10:26.371Z,6.51
2023-03-29T20:12:16.792Z,6.50
2023-03-29T20:14:07.745Z,6.48
2023-03-29T20:15:58.255Z,6.48
2023-03-29T20:17:48.260Z,6.47
2023-03-29T20:19:43.316Z,6.45
2023-03-29T20:21:33.664Z,6.45
2023-03-29T20:23:23.679Z,6.43
2023-03-29T20:25:13.725Z,6.43
2023-03-29T20:27:04.019Z,6.42
2023-03-29T20:28:54.059Z,6.41
2023-03-29T20:30:44.063Z,6.40
2023-03-29T20:32:34.061Z,6.39
2023-03-29T20:34:24.827Z,6.37
2023-03-29T20:36:22.291Z,6.34
2023-03-29T20:38:13.106Z,6.33
2023-03-29T20:40:04.730Z,6.31
2023-03-29T20:41:54.997Z,6.30
2023-03-29T20:43:45.643Z,6.28
2023-03-29T20:45:49.783Z,6.27
2023-03-29T20:47:49.448Z,6.26
2023-03-29T20:49:39.358Z,6.24
2023-03-29T20:51:32.087Z,6.22
2023-03-29T20:53:22.061Z,6.21
2023-03-29T20:55:12.341Z,6.19
2023-03-29T20:57:03.435Z,6.16
2023-03-29T20:58:55.005Z,6.15
2023-03-29T21:00:46.136Z,6.14
2023-03-29T21:02:36.114Z,6.13
2023-03-29T21:04:27.262Z,6.13
2023-03-29T21:06:18.619Z,6.12
2023-03-29T21:08:08.623Z,6.12
2023-03-29T21:10:00.376Z,6.13
2023-03-29T21:11:51.880Z,6.14
2023-03-29T21:13:42.782Z,6.16
2023-03-29T21:15:33.044Z,6.17
2023-03-29T21:17:23.016Z,6.18
2023-03-29T21:19:14.772Z,6.18
2023-03-29T21:21:07.151Z,6.17
2023-03-29T21:22:57.395Z,6.16
2023-03-29T21:24:47.278Z,6.14
2023-03-29T21:26:37.332Z,6.12
2023-03-29T21:28:27.791Z,6.10
2023-03-29T21:30:17.732Z,6.08
2023-03-29T21:32:07.630Z,6.06
2023-03-29T21:33:57.620Z,6.02
2023-03-29T21:35:48.538Z,5.99
2023-03-29T21:37:38.843Z,5.97
2023-03-29T21:39:29.464Z,5.94
2023-03-29T21:41:19.664Z,5.92
2023-03-29T21:43:09.521Z,5.91
2023-03-29T21:44:59.306Z,5.91
2023-03-29T21:48:30.747Z,5.96
2023-03-29T21:50:22.358Z,5.94
2023-03-29T21:52:14.078Z,5.96
2023-03-29T21:54:05.369Z,5.96
2023-03-29T21:55:56.965Z,5.96
2023-03-29T21:57:48.924Z,5.96
2023-03-29T21:59:40.357Z,5.97
2023-03-29T22:01:31.594Z,5.97
2023-03-29T22:03:23.429Z,5.97
2023-03-29T22:05:16.248Z,5.97
2023-03-29T22:07:08.395Z,5.98
2023-03-29T22:09:00.841Z,5.97
2023-03-29T22:10:56.800Z,5.97
2023-03-29T22:12:48.275Z,5.98
2023-03-29T22:14:39.619Z,5.98
2023-03-29T22:16:31.386Z,5.99
2023-03-29T22:18:23.975Z,5.99
2023-03-29T22:20:15.676Z,5.99
2023-03-29T22:22:13.992Z,6.00
2023-03-29T22:24:06.080Z,6.01
2023-03-29T22:25:57.963Z,6.00
2023-03-29T22:27:49.846Z,6.02
2023-03-29T22:29:41.094Z,6.02
2023-03-29T22:31:32.913Z,6.03
2023-03-29T22:33:24.602Z,6.03
2023-03-29T22:35:16.002Z,6.03
2023-03-29T22:37:07.515Z,6.05
2023-03-29T22:38:59.525Z,6.06
2023-03-29T22:40:50.946Z,6.09
2023-03-29T22:42:42.574Z,6.11
2023-03-29T22:44:34.043Z,6.13
2023-03-29T22:46:26.512Z,6.15
2023-03-29T22:48:17.619Z,6.18
2023-03-29T22:50:09.441Z,6.20
2023-03-29T22:52:01.525Z,6.23
2023-03-29T22:55:00.605Z,6.30
2023-03-29T22:56:55.905Z,6.30
2023-03-29T22:58:47.580Z,6.32
2023-03-29T23:00:39.079Z,6.34
2023-03-29T23:02:30.376Z,6.35
2023-03-29T23:04:22.322Z,6.36
2023-03-29T23:06:13.751Z,6.36
2023-03-29T23:08:06.901Z,6.35
2023-03-29T23:10:15.800Z,6.38
2023-03-29T23:12:07.272Z,6.37
2023-03-29T23:13:59.232Z,6.38
2023-03-29T23:15:52.811Z,6.39
2023-03-29T23:17:44.286Z,6.39
2023-03-29T23:19:36.719Z,6.38
2023-03-29T23:21:28.701Z,6.39
2023-03-29T23:23:21.058Z,6.37
2023-03-29T23:25:13.365Z,6.38
2023-03-29T23:27:05.635Z,6.37
2023-03-29T23:28:57.618Z,6.39
2023-03-29T23:30:58.008Z,6.39
2023-03-29T23:32:50.248Z,6.40
2023-03-29T23:34:42.266Z,6.42
2023-03-29T23:36:34.239Z,6.42
2023-03-29T23:38:26.411Z,6.44
2023-03-29T23:40:18.115Z,6.45
2023-03-29T23:42:09.493Z,6.47
2023-03-29T23:44:01.324Z,6.48
2023-03-29T23:46:01.124Z,6.48
2023-03-29T23:47:53.382Z,6.49
2023-03-29T23:49:45.492Z,6.50
2023-03-29T23:51:39.237Z,6.51
2023-03-29T23:53:31.645Z,6.51
2023-03-29T23:55:23.767Z,6.50
2023-03-29T23:57:15.419Z,6.49
2023-03-29T23:59:07.312Z,6.50
